Time;durP1;ratioP1;P1;durP2;ratioP2;P2;SDS_P1;SDS_P2;PMS_P1;PMS_P2;Temp;Humidity;BMP_temperature;BMP_pressure;BME280_temperature;BME280_humidity;BME280_pressure;Samples;Min_cycle;Max_cycle;Signal;HPM_P1;HPM_P2
2023/09/10 00:04:28;;;;;;;6.53;5.63;;;;;;;;;;10226177;28;20036;-68
2023/09/10 00:09:20;;;;;;;10.00;5.60;;;;;;;;;;10226058;28;20040;-70
2023/09/10 00:14:13;;;;;;;5.72;5.10;;;;;;;;;;10208700;28;20047;-71
2023/09/10 00:19:05;;;;;;;9.10;5.10;;;;;;;;;;10225918;28;20044;-71
2023/09/10 00:23:56;;;;;;;8.40;5.13;;;;;;;;;;10226045;28;20478;-71
2023/09/10 00:28:49;;;;;;;5.85;5.30;;;;;;;;;;10226210;28;20228;-70
2023/09/10 00:33:41;;;;;;;6.47;5.72;;;;;;;;;;10207401;28;20433;-71
2023/09/10 00:38:33;;;;;;;8.25;5.38;;;;;;;;;;10225124;28;20040;-70
2023/09/10 00:43:25;;;;;;;6.78;5.00;;;;;;;;;;10226149;28;20350;-68
2023/09/10 00:48:17;;;;;;;5.63;4.90;;;;;;;;;;10206693;28;20072;-70
2023/09/10 00:53:09;;;;;;;5.07;4.57;;;;;;;;;;10206678;28;20093;-71
2023/09/10 00:58:02;;;;;;;6.57;5.38;;;;;;;;;;10207829;28;20055;-70
2023/09/10 01:02:55;;;;;;;5.63;5.07;;;;;;;;;;10205159;28;20043;-70
2023/09/10 01:07:47;;;;;;;5.47;4.97;;;;;;;;;;10216033;28;20034;-71
2023/09/10 01:12:51;;;;;;;6.22;5.35;;;;;;;;;;10233564;27;20081;-70
2023/09/10 01:17:54;;;;;;;5.20;4.70;;;;;;;;;;10238004;28;20071;-71
2023/09/10 01:22:49;;;;;;;8.88;5.32;;;;;;;;;;10203752;28;20055;-70
2023/09/10 01:27:43;;;;;;;9.38;5.68;;;;;;;;;;10220259;28;20495;-70
2023/09/10 01:32:43;;;;;;;6.35;5.10;;;;;;;;;;10219802;28;20047;-70
2023/09/10 01:38:02;;;;;;;6.57;5.85;;;;;;;;;;10238206;28;20047;-71
2023/09/10 01:42:54;;;;;;;;;;;;;;;;;;10227335;28;20047;-69
2023/09/10 01:47:46;;;;;;;5.40;4.72;;;;;;;;;;10219453;28;19919;-70
2023/09/10 01:52:39;;;;;;;9.60;5.72;;;;;;;;;;10231082;28;20115;-70
2023/09/10 01:57:31;;;;;;;5.82;5.22;;;;;;;;;;10237374;28;20048;-68
2023/09/10 02:02:23;;;;;;;6.40;4.95;;;;;;;;;;10207639;28;20116;-70
2023/09/10 02:07:15;;;;;;;6.93;5.15;;;;;;;;;;10193310;28;20044;-70
2023/09/10 02:12:07;;;;;;;5.65;4.95;;;;;;;;;;10176922;28;20048;-70
2023/09/10 02:16:59;;;;;;;6.18;4.88;;;;;;;;;;10197685;28;20044;-69
2023/09/10 02:21:53;;;;;;;7.70;5.03;;;;;;;;;;10168847;28;20044;-70
2023/09/10 02:26:45;;;;;;;5.95;5.25;;;;;;;;;;10187765;28;20052;-70
2023/09/10 02:31:37;;;;;;;6.35;4.93;;;;;;;;;;10169564;28;20526;-68
2023/09/10 02:36:29;;;;;;;5.40;4.88;;;;;;;;;;10188862;28;20430;-71
2023/09/10 02:41:21;;;;;;;10.25;5.80;;;;;;;;;;10189635;28;20455;-69
2023/09/10 02:46:13;;;;;;;8.95;4.95;;;;;;;;;;10169871;28;20075;-69
2023/09/10 02:51:05;;;;;;;5.43;4.93;;;;;;;;;;10187362;28;20084;-70
2023/09/10 02:56:01;;;;;;;8.27;5.32;;;;;;;;;;10167748;28;20142;-71
2023/09/10 03:00:53;;;;;;;11.45;7.80;;;;;;;;;;10186385;28;20052;-71
2023/09/10 03:05:46;;;;;;;6.85;5.40;;;;;;;;;;10169315;28;20044;-69
2023/09/10 03:10:38;;;;;;;6.60;6.00;;;;;;;;;;10168856;28;20044;-70
2023/09/10 03:15:30;;;;;;;10.35;6.45;;;;;;;;;;10167954;28;20120;-71
2023/09/10 03:20:23;;;;;;;9.18;7.13;;;;;;;;;;10167675;28;20086;-71
2023/09/10 03:25:16;;;;;;;10.32;6.30;;;;;;;;;;10169334;28;20048;-70
2023/09/10 03:30:08;;;;;;;10.98;6.18;;;;;;;;;;10182961;28;20047;-70
2023/09/10 03:35:02;;;;;;;7.22;6.30;;;;;;;;;;10165604;28;20056;-71
2023/09/10 03:39:55;;;;;;;7.28;6.60;;;;;;;;;;10167914;28;20052;-71
2023/09/10 03:44:47;;;;;;;8.40;6.40;;;;;;;;;;10166395;28;20135;-69
2023/09/10 03:49:39;;;;;;;11.55;8.05;;;;;;;;;;10205289;28;20097;-70
2023/09/10 03:54:32;;;;;;;9.13;7.47;;;;;;;;;;10207642;28;20373;-70
2023/09/10 03:59:24;;;;;;;7.82;6.68;;;;;;;;;;10185392;28;20054;-70
2023/09/10 04:04:19;;;;;;;8.30;6.72;;;;;;;;;;10184210;28;20458;-70
2023/09/10 04:09:11;;;;;;;9.00;6.75;;;;;;;;;;10199667;28;20044;-70
2023/09/10 04:14:03;;;;;;;10.57;6.45;;;;;;;;;;10172417;28;20134;-70
2023/09/10 04:18:55;;;;;;;6.80;6.10;;;;;;;;;;10183474;28;20071;-70
2023/09/10 04:23:47;;;;;;;8.80;6.35;;;;;;;;;;10183922;28;20051;-70
2023/09/10 04:28:40;;;;;;;8.35;7.32;;;;;;;;;;10182184;28;20056;-70
2023/09/10 04:33:32;;;;;;;6.57;5.97;;;;;;;;;;10182847;28;20358;-69
2023/09/10 04:38:24;;;;;;;7.25;6.47;;;;;;;;;;10183282;28;20051;-70
2023/09/10 04:43:16;;;;;;;9.27;7.95;;;;;;;;;;10161867;28;20044;-69
2023/09/10 04:48:08;;;;;;;9.25;7.68;;;;;;;;;;10181638;28;20379;-70
2023/09/10 04:53:01;;;;;;;8.77;6.75;;;;;;;;;;10191140;28;20100;-71
2023/09/10 04:57:53;;;;;;;6.90;6.30;;;;;;;;;;10194096;28;20044;-70
2023/09/10 05:02:45;;;;;;;7.00;6.30;;;;;;;;;;10162098;28;20044;-70
2023/09/10 05:07:40;;;;;;;6.47;5.88;;;;;;;;;;10163315;28;20036;-69
2023/09/10 05:12:33;;;;;;;6.78;6.15;;;;;;;;;;10166341;28;20093;-70
2023/09/10 05:17:25;;;;;;;5.72;5.22;;;;;;;;;;10181800;28;20059;-69
2023/09/10 05:22:17;;;;;;;6.03;5.50;;;;;;;;;;10163146;28;20066;-70
2023/09/10 05:27:09;;;;;;;6.78;5.05;;;;;;;;;;10163758;28;20111;-68
2023/09/10 05:32:01;;;;;;;6.70;5.63;;;;;;;;;;10166335;28;20054;-70
2023/09/10 05:36:54;;;;;;;6.93;5.10;;;;;;;;;;10184126;28;20076;-70
2023/09/10 05:41:46;;;;;;;5.88;5.30;;;;;;;;;;10165348;28;20404;-70
2023/09/10 05:46:38;;;;;;;11.88;5.68;;;;;;;;;;10165659;28;20044;-70
2023/09/10 05:51:30;;;;;;;5.93;5.43;;;;;;;;;;10196881;28;20096;-69
2023/09/10 05:56:22;;;;;;;6.47;5.18;;;;;;;;;;10205124;28;20040;-70
2023/09/10 06:01:14;;;;;;;8.52;5.43;;;;;;;;;;10211372;28;20051;-68
2023/09/10 06:06:06;;;;;;;8.55;6.50;;;;;;;;;;10202628;28;20445;-69
2023/09/10 06:10:58;;;;;;;7.32;6.13;;;;;;;;;;10212631;28;20377;-70
2023/09/10 06:15:51;;;;;;;8.82;5.68;;;;;;;;;;10200793;28;20047;-69
2023/09/10 06:20:43;;;;;;;12.20;6.20;;;;;;;;;;10210574;28;20067;-70
2023/09/10 06:25:35;;;;;;;9.77;6.05;;;;;;;;;;10217245;28;20040;-70
2023/09/10 06:30:27;;;;;;;7.40;6.05;;;;;;;;;;10190952;28;20089;-70
2023/09/10 06:35:19;;;;;;;7.82;6.03;;;;;;;;;;10231191;28;20039;-70
2023/09/10 06:40:13;;;;;;;6.78;6.05;;;;;;;;;;10215815;28;20104;-70
2023/09/10 06:45:07;;;;;;;8.60;6.32;;;;;;;;;;10194682;28;20093;-70
2023/09/10 06:49:58;;;;;;;6.82;6.22;;;;;;;;;;10218717;28;20403;-70
2023/09/10 06:54:50;;;;;;;9.80;8.90;;;;;;;;;;10212079;28;20059;-69
2023/09/10 06:59:42;;;;;;;6.00;5.40;;;;;;;;;;10225868;28;20047;-70
2023/09/10 07:04:34;;;;;;;10.43;7.80;;;;;;;;;;10227260;28;20469;-70
2023/09/10 07:09:26;;;;;;;12.05;9.13;;;;;;;;;;10228214;28;20047;-69
2023/09/10 07:14:19;;;;;;;7.93;7.13;;;;;;;;;;10227817;28;20100;-71
2023/09/10 07:19:11;;;;;;;7.20;6.50;;;;;;;;;;10216008;28;20051;-65
2023/09/10 07:24:06;;;;;;;8.10;6.32;;;;;;;;;;10227563;28;20052;-65
2023/09/10 07:28:58;;;;;;;13.35;6.68;;;;;;;;;;10227750;28;20060;-65
2023/09/10 07:33:50;;;;;;;8.68;6.85;;;;;;;;;;10227849;28;20039;-64
2023/09/10 07:38:42;;;;;;;8.20;6.43;;;;;;;;;;10227294;28;20043;-65
2023/09/10 07:43:34;;;;;;;9.18;6.20;;;;;;;;;;10227592;28;20052;-65
2023/09/10 07:48:25;;;;;;;8.55;6.32;;;;;;;;;;10219004;28;20385;-65
2023/09/10 07:53:17;;;;;;;8.02;7.32;;;;;;;;;;10203803;28;20222;-65
2023/09/10 07:58:09;;;;;;;7.82;7.03;;;;;;;;;;10206369;28;20430;-65
2023/09/10 08:03:03;;;;;;;10.68;7.10;;;;;;;;;;10197975;28;20359;-65
2023/09/10 08:07:55;;;;;;;9.68;6.57;;;;;;;;;;10227460;28;20126;-64
2023/09/10 08:12:47;;;;;;;11.40;7.57;;;;;;;;;;10223846;28;20036;-63
2023/09/10 08:17:39;;;;;;;9.93;6.95;;;;;;;;;;10208083;28;20117;-65
2023/09/10 08:22:31;;;;;;;7.03;5.90;;;;;;;;;;10199837;28;20072;-64
2023/09/10 08:27:22;;;;;;;7.97;6.35;;;;;;;;;;10215130;28;20051;-64
2023/09/10 08:32:14;;;;;;;7.72;6.65;;;;;;;;;;10199593;28;20038;-63
2023/09/10 08:37:11;;;;;;;6.90;6.20;;;;;;;;;;10203632;28;20042;-66
2023/09/10 08:42:16;;;;;;;7.40;6.70;;;;;;;;;;10201909;28;20093;-65
2023/09/10 08:47:09;;;;;;;11.25;6.85;;;;;;;;;;10178750;28;20047;-63
2023/09/10 08:52:02;;;;;;;8.52;7.47;;;;;;;;;;10205984;28;20599;-63
2023/09/10 08:56:55;;;;;;;9.25;6.70;;;;;;;;;;10222531;28;20420;-62
2023/09/10 09:01:47;;;;;;;9.02;6.85;;;;;;;;;;10208066;28;20481;-63
2023/09/10 09:06:40;;;;;;;9.93;6.10;;;;;;;;;;10207751;28;20040;-62
2023/09/10 09:11:35;;;;;;;9.43;6.13;;;;;;;;;;10190711;28;20105;-63
2023/09/10 09:16:27;;;;;;;9.25;6.47;;;;;;;;;;10196178;28;20096;-63
2023/09/10 09:21:20;;;;;;;7.38;6.68;;;;;;;;;;10198867;28;20046;-63
2023/09/10 09:26:14;;;;;;;8.30;7.18;;;;;;;;;;10224052;28;20055;-63
2023/09/10 09:31:10;;;;;;;10.43;6.18;;;;;;;;;;10225808;28;20039;-62
2023/09/10 09:36:09;;;;;;;10.30;6.88;;;;;;;;;;10191570;28;20032;-66
2023/09/10 09:41:04;;;;;;;7.68;6.03;;;;;;;;;;10216417;28;20385;-62
2023/09/10 09:45:56;;;;;;;7.50;6.78;;;;;;;;;;10214415;28;20048;-65
2023/09/10 09:50:48;;;;;;;9.07;7.00;;;;;;;;;;10205724;28;20093;-66
2023/09/10 09:55:40;;;;;;;6.90;6.00;;;;;;;;;;10191738;28;20056;-65
2023/09/10 10:00:34;;;;;;;8.80;6.72;;;;;;;;;;10206020;28;20470;-66
2023/09/10 10:05:29;;;;;;;9.02;6.65;;;;;;;;;;10189706;28;20048;-66
2023/09/10 10:10:21;;;;;;;9.77;6.00;;;;;;;;;;10192315;28;20067;-66
2023/09/10 10:15:14;;;;;;;13.80;5.50;;;;;;;;;;10227815;28;20063;-66
2023/09/10 10:20:06;;;;;;;8.18;6.47;;;;;;;;;;10171871;28;20059;-66
2023/09/10 10:24:59;;;;;;;13.35;7.22;;;;;;;;;;10170618;28;20044;-65
2023/09/10 10:29:51;;;;;;;10.77;6.82;;;;;;;;;;10185395;28;20044;-66
2023/09/10 10:34:49;;;;;;;8.43;6.28;;;;;;;;;;10187862;28;20052;-66
2023/09/10 10:39:50;;;;;;;8.65;5.57;;;;;;;;;;10212814;28;20044;-66
2023/09/10 10:44:42;;;;;;;6.85;6.07;;;;;;;;;;10200595;28;20050;-66
2023/09/10 10:49:34;;;;;;;6.57;5.53;;;;;;;;;;10229026;28;20043;-62
2023/09/10 10:54:26;;;;;;;8.45;6.75;;;;;;;;;;10211403;28;20052;-64
2023/09/10 10:59:19;;;;;;;8.48;6.85;;;;;;;;;;10199278;28;20056;-66
2023/09/10 11:04:18;;;;;;;8.02;6.65;;;;;;;;;;10206551;28;20079;-64
2023/09/10 11:09:33;;;;;;;8.32;6.45;;;;;;;;;;10209534;28;20512;-66
2023/09/10 11:14:25;;;;;;;7.72;6.38;;;;;;;;;;10189156;28;20485;-66
2023/09/10 11:19:47;;;;;;;9.45;6.32;;;;;;;;;;10185638;28;20056;-64
2023/09/10 11:24:40;;;;;;;8.27;6.88;;;;;;;;;;10170608;28;20537;-64
2023/09/10 11:29:35;;;;;;;7.95;6.75;;;;;;;;;;10196844;28;20039;-62
2023/09/10 11:34:31;;;;;;;8.32;6.18;;;;;;;;;;10223067;28;20104;-64
2023/09/10 11:39:23;;;;;;;7.32;6.32;;;;;;;;;;10222152;28;20044;-63
2023/09/10 11:44:15;;;;;;;6.82;6.15;;;;;;;;;;10209496;27;20043;-60
2023/09/10 11:49:07;;;;;;;13.40;7.80;;;;;;;;;;10206367;28;20061;-62
2023/09/10 11:53:59;;;;;;;7.25;6.63;;;;;;;;;;10216609;28;20047;-65
2023/09/10 11:58:53;;;;;;;9.20;6.40;;;;;;;;;;10207831;28;20058;-64
2023/09/10 12:03:45;;;;;;;10.27;8.20;;;;;;;;;;10210767;28;20055;-62
2023/09/10 12:08:37;;;;;;;10.35;6.82;;;;;;;;;;10209480;28;20048;-62
2023/09/10 12:13:32;;;;;;;7.38;6.60;;;;;;;;;;10208077;28;20031;-64
2023/09/10 12:18:24;;;;;;;7.75;6.75;;;;;;;;;;10223419;28;20078;-61
2023/09/10 12:23:16;;;;;;;11.23;6.45;;;;;;;;;;10197121;28;20048;-62
2023/09/10 12:28:09;;;;;;;6.20;5.70;;;;;;;;;;10208483;28;20087;-63
2023/09/10 12:33:02;;;;;;;6.65;6.05;;;;;;;;;;10219042;28;20042;-63
2023/09/10 12:37:54;;;;;;;9.27;5.80;;;;;;;;;;10203987;28;20123;-59
2023/09/10 12:42:48;;;;;;;6.60;5.82;;;;;;;;;;10202287;28;20066;-62
2023/09/10 12:47:41;;;;;;;9.20;6.78;;;;;;;;;;10193580;28;20052;-62
2023/09/10 12:52:34;;;;;;;7.28;5.82;;;;;;;;;;10179549;28;20056;-60
2023/09/10 12:57:26;;;;;;;7.60;6.80;;;;;;;;;;10183594;28;20505;-62
2023/09/10 13:02:21;;;;;;;12.05;6.35;;;;;;;;;;10185728;28;20046;-59
2023/09/10 13:07:14;;;;;;;10.50;6.55;;;;;;;;;;10195239;28;20044;-60
2023/09/10 13:12:06;;;;;;;9.38;6.13;;;;;;;;;;10165995;28;20553;-61
2023/09/10 13:16:58;;;;;;;8.18;5.78;;;;;;;;;;10198189;28;20047;-62
2023/09/10 13:21:50;;;;;;;8.82;7.93;;;;;;;;;;10203091;28;20127;-58
2023/09/10 13:26:42;;;;;;;10.13;6.68;;;;;;;;;;10187108;28;20043;-60
2023/09/10 13:31:34;;;;;;;8.73;5.80;;;;;;;;;;10182233;28;20116;-61
2023/09/10 13:36:26;;;;;;;8.52;6.30;;;;;;;;;;10209215;28;20047;-63
2023/09/10 13:41:18;;;;;;;10.75;6.15;;;;;;;;;;10201195;28;20131;-62
2023/09/10 13:46:10;;;;;;;10.77;7.90;;;;;;;;;;10180168;28;20168;-62
2023/09/10 13:51:02;;;;;;;7.65;6.53;;;;;;;;;;10208826;28;20778;-61
2023/09/10 13:55:53;;;;;;;8.07;6.07;;;;;;;;;;10223153;28;20112;-61
2023/09/10 14:00:45;;;;;;;10.52;5.70;;;;;;;;;;10202517;28;20039;-63
2023/09/10 14:05:37;;;;;;;6.15;5.55;;;;;;;;;;10208448;28;20113;-60
2023/09/10 14:10:29;;;;;;;7.63;5.45;;;;;;;;;;10182707;28;20053;-63
2023/09/10 14:15:21;;;;;;;7.45;5.63;;;;;;;;;;10217491;28;20067;-63
2023/09/10 14:20:13;;;;;;;6.75;5.65;;;;;;;;;;10225577;28;20035;-61
2023/09/10 14:25:12;;;;;;;6.68;5.47;;;;;;;;;;10222943;28;20104;-67
2023/09/10 14:30:04;;;;;;;7.35;5.20;;;;;;;;;;10198309;28;20044;-69
2023/09/10 14:34:56;;;;;;;5.93;5.32;;;;;;;;;;10184645;28;20148;-68
2023/09/10 14:39:48;;;;;;;8.45;5.65;;;;;;;;;;10186082;28;20497;-70
2023/09/10 14:44:40;;;;;;;8.57;4.65;;;;;;;;;;10215682;28;20048;-70
2023/09/10 14:49:32;;;;;;;7.78;5.38;;;;;;;;;;10185793;28;20139;-70
2023/09/10 14:54:24;;;;;;;8.35;5.22;;;;;;;;;;10188134;28;20159;-69
2023/09/10 14:59:16;;;;;;;6.65;5.10;;;;;;;;;;10185583;28;20470;-70
2023/09/10 15:04:08;;;;;;;5.80;5.20;;;;;;;;;;10187315;28;20480;-70
2023/09/10 15:09:00;;;;;;;5.60;5.10;;;;;;;;;;10184424;28;20071;-70
2023/09/10 15:13:52;;;;;;;6.47;4.60;;;;;;;;;;10183520;28;20106;-69
2023/09/10 15:18:45;;;;;;;5.30;4.80;;;;;;;;;;10185663;28;20531;-70
2023/09/10 15:23:37;;;;;;;6.78;5.30;;;;;;;;;;10184443;28;20048;-68
2023/09/10 15:28:29;;;;;;;6.90;5.20;;;;;;;;;;10183268;28;20044;-70
2023/09/10 15:33:21;;;;;;;10.60;5.50;;;;;;;;;;10184085;28;20551;-71
2023/09/10 15:38:13;;;;;;;9.18;5.13;;;;;;;;;;10183494;28;20055;-70
2023/09/10 15:43:05;;;;;;;6.03;5.43;;;;;;;;;;10182353;28;20048;-71
2023/09/10 15:47:56;;;;;;;5.20;4.22;;;;;;;;;;10188504;28;20135;-69
2023/09/10 15:52:48;;;;;;;7.15;4.53;;;;;;;;;;10234471;27;20054;-70
2023/09/10 15:57:41;;;;;;;6.45;5.00;;;;;;;;;;10224604;28;20040;-69
2023/09/10 16:02:38;;;;;;;7.30;4.90;;;;;;;;;;10219555;28;20050;-70
2023/09/10 16:07:30;;;;;;;7.70;5.50;;;;;;;;;;10215885;27;20466;-70
2023/09/10 16:12:22;;;;;;;9.57;6.63;;;;;;;;;;10221160;28;20074;-71
2023/09/10 16:17:14;;;;;;;5.80;5.03;;;;;;;;;;10223820;28;20044;-70
2023/09/10 16:22:06;;;;;;;4.95;4.50;;;;;;;;;;10187683;28;20036;-70
2023/09/10 16:26:59;;;;;;;6.10;5.03;;;;;;;;;;10182329;28;20048;-70
2023/09/10 16:31:51;;;;;;;6.82;5.03;;;;;;;;;;10184214;28;20051;-70
2023/09/10 16:36:42;;;;;;;10.55;6.07;;;;;;;;;;10180541;28;20070;-70
2023/09/10 16:41:34;;;;;;;8.10;5.80;;;;;;;;;;10180733;28;20044;-71
2023/09/10 16:46:27;;;;;;;8.50;5.15;;;;;;;;;;10181916;28;20087;-70
2023/09/10 16:51:20;;;;;;;8.05;6.18;;;;;;;;;;10180314;28;20048;-70
2023/09/10 16:56:11;;;;;;;5.93;5.43;;;;;;;;;;10181595;28;20047;-71
2023/09/10 17:01:03;;;;;;;7.35;5.28;;;;;;;;;;10183322;28;20083;-70
2023/09/10 17:05:56;;;;;;;7.97;6.10;;;;;;;;;;10181281;28;20048;-71
2023/09/10 17:10:48;;;;;;;9.57;5.80;;;;;;;;;;10180922;28;20408;-70
2023/09/10 17:15:40;;;;;;;5.95;5.00;;;;;;;;;;10181359;28;20074;-69
2023/09/10 17:20:33;;;;;;;8.43;5.45;;;;;;;;;;10180335;28;20068;-70
2023/09/10 17:25:25;;;;;;;7.72;6.20;;;;;;;;;;10179794;28;20079;-71
2023/09/10 17:30:17;;;;;;;6.63;6.03;;;;;;;;;;10181801;28;20127;-70
2023/09/10 17:35:09;;;;;;;7.22;5.63;;;;;;;;;;10181921;28;20044;-70
2023/09/10 17:40:02;;;;;;;7.53;5.47;;;;;;;;;;10180563;28;20109;-70
2023/09/10 17:44:57;;;;;;;6.50;5.82;;;;;;;;;;10182831;28;20109;-70
2023/09/10 17:49:49;;;;;;;10.75;7.00;;;;;;;;;;10183701;28;20036;-70
2023/09/10 17:54:58;;;;;;;6.80;6.13;;;;;;;;;;10188730;28;20060;-70
2023/09/10 17:59:50;;;;;;;8.25;6.35;;;;;;;;;;10188193;28;20113;-70
2023/09/10 18:04:42;;;;;;;7.32;5.80;;;;;;;;;;10185464;28;20102;-71
2023/09/10 18:09:33;;;;;;;7.70;6.55;;;;;;;;;;10187322;28;20040;-69
2023/09/10 18:14:25;;;;;;;6.10;5.50;;;;;;;;;;10186650;28;20085;-70
2023/09/10 18:19:17;;;;;;;7.28;6.57;;;;;;;;;;10187112;28;20036;-68
2023/09/10 18:24:12;;;;;;;7.95;6.10;;;;;;;;;;10187405;28;20055;-70
2023/09/10 18:29:04;;;;;;;8.65;7.30;;;;;;;;;;10187837;28;20814;-70
2023/09/10 18:33:55;;;;;;;9.63;6.15;;;;;;;;;;10189062;28;20059;-71
2023/09/10 18:38:53;;;;;;;7.28;5.72;;;;;;;;;;10187178;28;20044;-70
2023/09/10 18:43:44;;;;;;;13.05;6.93;;;;;;;;;;10187888;28;20055;-70
2023/09/10 18:48:36;;;;;;;6.85;6.15;;;;;;;;;;10185805;28;20067;-71
2023/09/10 18:53:28;;;;;;;8.85;6.57;;;;;;;;;;10187285;28;20085;-70
2023/09/10 18:58:23;;;;;;;7.15;6.53;;;;;;;;;;10185381;28;20052;-70
2023/09/10 19:03:15;;;;;;;9.95;6.75;;;;;;;;;;10185381;28;20113;-69
2023/09/10 19:08:07;;;;;;;7.30;6.60;;;;;;;;;;10184881;28;20036;-71
2023/09/10 19:12:59;;;;;;;8.23;6.90;;;;;;;;;;10185507;28;20056;-71
2023/09/10 19:17:51;;;;;;;11.10;7.25;;;;;;;;;;10188198;28;20127;-70
2023/09/10 19:22:43;;;;;;;8.57;6.72;;;;;;;;;;10182782;28;20043;-70
2023/09/10 19:27:37;;;;;;;9.52;6.45;;;;;;;;;;10183469;28;20098;-70
2023/09/10 19:32:29;;;;;;;10.15;7.13;;;;;;;;;;10186478;28;20105;-71
2023/09/10 19:37:21;;;;;;;8.65;6.97;;;;;;;;;;10186308;28;20044;-69
2023/09/10 19:42:13;;;;;;;11.43;7.20;;;;;;;;;;10198582;28;20633;-71
2023/09/10 19:47:05;;;;;;;7.90;7.20;;;;;;;;;;10226801;28;20131;-70
2023/09/10 19:51:57;;;;;;;7.82;7.00;;;;;;;;;;10203760;28;20105;-70
2023/09/10 19:56:49;;;;;;;8.13;7.35;;;;;;;;;;10186992;28;20048;-69
2023/09/10 20:01:43;;;;;;;8.98;7.53;;;;;;;;;;10186027;28;20489;-69
2023/09/10 20:06:37;;;;;;;12.57;8.38;;;;;;;;;;10219643;28;20686;-69
2023/09/10 20:11:31;;;;;;;8.02;7.22;;;;;;;;;;10214788;28;20054;-69
2023/09/10 20:16:25;;;;;;;7.72;6.97;;;;;;;;;;10211097;28;20144;-70
2023/09/10 20:21:18;;;;;;;9.15;8.30;;;;;;;;;;10209527;28;20131;-69
2023/09/10 20:26:09;;;;;;;8.25;6.95;;;;;;;;;;10224753;28;20077;-69
2023/09/10 20:31:03;;;;;;;11.60;6.72;;;;;;;;;;10225964;28;20039;-69
2023/09/10 20:35:55;;;;;;;8.35;7.55;;;;;;;;;;10206415;28;20413;-70
2023/09/10 20:40:47;;;;;;;9.85;7.88;;;;;;;;;;10208848;28;20040;-70
2023/09/10 20:45:39;;;;;;;12.27;7.70;;;;;;;;;;10192824;28;20597;-69
2023/09/10 20:50:34;;;;;;;9.23;7.47;;;;;;;;;;10207928;28;20467;-69
2023/09/10 20:55:26;;;;;;;9.85;7.05;;;;;;;;;;10223152;28;20047;-69
2023/09/10 21:00:18;;;;;;;10.20;6.47;;;;;;;;;;10224245;28;20043;-69
2023/09/10 21:05:10;;;;;;;8.32;7.53;;;;;;;;;;10204035;28;20039;-69
2023/09/10 21:10:03;;;;;;;9.07;6.88;;;;;;;;;;10203223;28;20048;-68
2023/09/10 21:14:54;;;;;;;7.35;6.75;;;;;;;;;;10191479;28;20086;-69
2023/09/10 21:19:46;;;;;;;9.52;7.47;;;;;;;;;;10206790;28;20054;-68
2023/09/10 21:24:38;;;;;;;12.45;7.18;;;;;;;;;;10188373;28;20040;-69
2023/09/10 21:29:30;;;;;;;7.97;7.28;;;;;;;;;;10189055;28;20063;-67
2023/09/10 21:34:22;;;;;;;7.78;6.95;;;;;;;;;;10192208;28;20119;-69
2023/09/10 21:39:14;;;;;;;7.68;7.00;;;;;;;;;;10193215;28;20044;-69
2023/09/10 21:44:06;;;;;;;8.07;7.28;;;;;;;;;;10194941;28;20055;-70
2023/09/10 21:48:58;;;;;;;9.43;7.35;;;;;;;;;;10207305;28;20466;-68
2023/09/10 21:53:50;;;;;;;11.38;7.90;;;;;;;;;;10190997;28;20043;-69
2023/09/10 21:58:51;;;;;;;10.82;7.40;;;;;;;;;;10225216;28;20054;-69
2023/09/10 22:03:43;;;;;;;11.25;7.80;;;;;;;;;;10193724;28;20131;-67
2023/09/10 22:08:35;;;;;;;7.35;6.65;;;;;;;;;;10228360;28;20050;-68
2023/09/10 22:13:27;;;;;;;9.18;7.32;;;;;;;;;;10190353;28;20078;-67
2023/09/10 22:18:20;;;;;;;8.55;7.13;;;;;;;;;;10185972;28;20072;-67
2023/09/10 22:23:12;;;;;;;7.60;6.90;;;;;;;;;;10212481;28;20044;-67
2023/09/10 22:28:04;;;;;;;10.18;7.57;;;;;;;;;;10219229;28;20677;-70
2023/09/10 22:32:56;;;;;;;8.45;7.65;;;;;;;;;;10185130;28;20092;-68
2023/09/10 22:37:48;;;;;;;8.50;7.70;;;;;;;;;;10186420;28;20080;-68
2023/09/10 22:42:41;;;;;;;7.72;6.95;;;;;;;;;;10188547;28;20048;-69
2023/09/10 22:47:33;;;;;;;6.57;5.97;;;;;;;;;;10188220;28;20174;-69
2023/09/10 22:52:25;;;;;;;8.43;7.63;;;;;;;;;;10192408;28;20039;-66
2023/09/10 22:57:17;;;;;;;8.48;6.32;;;;;;;;;;10218825;28;20044;-67
